createdAt,value
2024-04-22T00:01:18.641Z,54.91
2024-04-22T00:06:20.529Z,55.56
2024-04-22T00:11:22.585Z,55.51
2024-04-22T00:16:24.655Z,54.84
2024-04-22T00:21:26.802Z,55.84
2024-04-22T00:26:28.746Z,55.68
2024-04-22T00:31:31.279Z,54.85
2024-04-22T00:36:33.491Z,55.61
2024-04-22T00:41:36.589Z,56.53
2024-04-22T00:46:39.067Z,56.17
2024-04-22T00:51:41.196Z,55.92
2024-04-22T00:56:43.601Z,56.26
2024-04-22T01:01:46.676Z,55.61
2024-04-22T01:06:48.654Z,56.65
2024-04-22T01:11:50.732Z,56.76
2024-04-22T01:16:56.875Z,57.08
2024-04-22T01:21:58.919Z,57.26
2024-04-22T01:27:05.148Z,57.22
2024-04-22T01:32:07.803Z,57.46
2024-04-22T01:37:09.971Z,57.49
2024-04-22T01:42:11.983Z,57.85
2024-04-22T01:47:14.112Z,58.18
2024-04-22T01:52:16.115Z,56.91
2024-04-22T01:57:18.078Z,57.45
2024-04-22T02:02:19.966Z,57.46
2024-04-22T02:07:22.699Z,56.70
2024-04-22T02:12:27.577Z,57.10
2024-04-22T02:17:29.800Z,57.00
2024-04-22T02:22:32.003Z,56.59
2024-04-22T02:27:33.935Z,56.78
2024-04-22T02:32:36.190Z,56.17
2024-04-22T02:37:38.344Z,57.09
2024-04-22T02:42:40.475Z,57.17
2024-04-22T02:47:42.837Z,57.95
2024-04-22T02:52:44.745Z,58.46
2024-04-22T02:57:46.618Z,58.19
2024-04-22T03:02:48.527Z,57.64
2024-04-22T03:07:51.838Z,58.05
2024-04-22T03:12:53.760Z,57.95
2024-04-22T03:17:55.628Z,57.84
2024-04-22T03:22:57.831Z,57.89
2024-04-22T03:28:00.030Z,60.13
2024-04-22T03:33:02.291Z,57.67
2024-04-22T03:38:04.313Z,57.79
2024-04-22T03:43:06.504Z,58.16
2024-04-22T03:48:27.500Z,56.93
2024-04-22T03:53:29.657Z,57.90
2024-04-22T03:58:31.544Z,57.93
2024-04-22T04:03:33.613Z,58.45
2024-04-22T04:08:35.645Z,58.48
2024-04-22T04:13:38.097Z,58.37
2024-04-22T04:18:40.558Z,58.40
2024-04-22T04:23:42.679Z,58.36
2024-04-22T04:28:49.223Z,57.28
2024-04-22T04:33:51.385Z,58.85
2024-04-22T04:38:53.412Z,57.63
2024-04-22T04:43:55.477Z,58.47
2024-04-22T04:48:58.660Z,58.73
2024-04-22T04:54:00.640Z,58.78
2024-04-22T04:59:02.653Z,58.62
2024-04-22T05:04:05.138Z,57.80
2024-04-22T05:09:07.240Z,58.93
2024-04-22T05:14:09.205Z,58.65
2024-04-22T05:19:11.423Z,59.94
2024-04-22T05:24:13.819Z,58.71
2024-04-22T05:29:15.994Z,59.55
2024-04-22T05:34:36.727Z,58.18
2024-04-22T05:39:38.852Z,58.79
2024-04-22T05:44:40.787Z,57.96
2024-04-22T05:49:43.044Z,59.16
2024-04-22T05:54:45.106Z,53.92
2024-04-22T05:59:46.907Z,51.61
2024-04-22T06:04:49.048Z,49.77
2024-04-22T06:09:51.021Z,53.24
2024-04-22T06:14:53.008Z,51.78
2024-04-22T06:19:55.117Z,55.18
2024-04-22T06:24:57.299Z,52.75
2024-04-22T06:29:59.307Z,52.44
2024-04-22T06:35:01.176Z,55.67
2024-04-22T06:40:03.143Z,54.22
2024-04-22T06:45:05.325Z,55.16
2024-04-22T06:50:07.482Z,52.28
2024-04-22T06:55:10.048Z,54.24
2024-04-22T07:00:12.751Z,52.33
2024-04-22T07:05:14.709Z,51.16
2024-04-22T07:10:16.833Z,51.46
2024-04-22T07:15:20.452Z,50.17
2024-04-22T07:20:22.410Z,49.72
2024-04-22T07:25:24.775Z,45.25
2024-04-22T07:30:26.935Z,46.91
2024-04-22T07:35:29.323Z,48.05
2024-04-22T07:40:32.642Z,46.43
2024-04-22T07:45:34.565Z,46.87
2024-04-22T07:50:36.628Z,44.87
2024-04-22T07:55:38.954Z,46.06
2024-04-22T08:00:41.439Z,47.43
2024-04-22T08:05:43.703Z,45.72
2024-04-22T08:10:46.207Z,48.26
2024-04-22T08:15:49.096Z,45.10
2024-04-22T08:20:51.015Z,44.11
2024-04-22T08:25:54.244Z,45.89
2024-04-22T08:31:10.673Z,44.86
2024-04-22T08:36:15.384Z,44.34
2024-04-22T08:41:20.301Z,44.73
2024-04-22T08:46:22.312Z,45.55
2024-04-22T08:51:24.729Z,46.55
2024-04-22T08:56:30.208Z,44.97
2024-04-22T09:01:32.763Z,45.97
2024-04-22T09:06:34.994Z,44.78
2024-04-22T09:11:58.771Z,42.69
2024-04-22T09:16:59.034Z,42.07
2024-04-22T09:22:04.188Z,42.25
2024-04-22T09:27:07.131Z,42.57
2024-04-22T09:32:15.973Z,42.90
2024-04-22T09:37:18.305Z,42.25
2024-04-22T09:42:21.195Z,42.51
2024-04-22T09:47:24.148Z,41.24
2024-04-22T09:52:27.927Z,41.24
2024-04-22T09:57:32.693Z,39.86
2024-04-22T10:02:35.086Z,38.05
2024-04-22T10:07:38.694Z,40.74
2024-04-22T10:12:41.220Z,40.31
2024-04-22T10:17:47.584Z,40.38
2024-04-22T10:22:51.362Z,39.44
2024-04-22T10:27:53.474Z,40.32
2024-04-22T10:32:55.416Z,38.91
2024-04-22T10:37:58.476Z,40.48
2024-04-22T10:43:00.822Z,40.99
2024-04-22T10:48:11.720Z,41.84
2024-04-22T10:53:20.332Z,41.32
2024-04-22T10:58:24.352Z,42.41
2024-04-22T11:03:27.490Z,41.76
2024-04-22T11:08:30.395Z,42.03
2024-04-22T11:13:34.134Z,42.68
2024-04-22T11:18:37.208Z,43.49
2024-04-22T11:23:39.731Z,41.71
2024-04-22T11:28:41.846Z,40.00
2024-04-22T11:33:44.026Z,40.54
2024-04-22T11:38:46.375Z,39.43
2024-04-22T11:43:48.539Z,40.46
2024-04-22T11:48:50.992Z,37.87
2024-04-22T11:53:54.616Z,40.21
2024-04-22T11:58:57.185Z,39.34
2024-04-22T12:04:00.520Z,40.85
2024-04-22T12:09:05.838Z,40.92
2024-04-22T12:14:09.552Z,40.37
2024-04-22T12:19:11.921Z,41.00
2024-04-22T12:24:14.183Z,41.82
2024-04-22T12:29:16.334Z,42.99
2024-04-22T12:34:18.442Z,39.63
2024-04-22T12:39:20.546Z,41.97
2024-04-22T12:44:22.707Z,42.47
2024-04-22T12:49:43.280Z,41.51
2024-04-22T12:54:45.447Z,41.49
2024-04-22T12:59:48.663Z,42.44
2024-04-22T13:04:50.632Z,43.06
2024-04-22T13:09:53.361Z,43.97
2024-04-22T13:14:55.577Z,43.25
2024-04-22T13:19:57.709Z,42.33
2024-04-22T13:25:02.470Z,41.46
2024-04-22T13:30:10.719Z,40.95
2024-04-22T13:35:12.696Z,43.39
2024-04-22T13:40:14.712Z,43.84
2024-04-22T13:45:16.992Z,41.42
2024-04-22T13:50:19.033Z,42.94
2024-04-22T13:55:21.279Z,41.11
2024-04-22T14:00:23.568Z,40.00
2024-04-22T14:05:25.827Z,40.26
2024-04-22T14:10:28.749Z,40.78
2024-04-22T14:15:44.353Z,42.41
2024-04-22T14:20:49.916Z,42.78
2024-04-22T14:25:53.277Z,43.53
2024-04-22T14:30:55.978Z,45.22
2024-04-22T14:35:57.940Z,44.54
2024-04-22T14:41:00.160Z,45.17
2024-04-22T14:46:03.932Z,43.77
2024-04-22T14:51:06.233Z,44.61
2024-04-22T14:56:08.352Z,44.47
2024-04-22T15:01:10.307Z,45.05
2024-04-22T15:06:12.293Z,45.48
2024-04-22T15:11:14.472Z,45.97
2024-04-22T15:16:17.483Z,46.17
2024-04-22T15:21:19.428Z,46.14
2024-04-22T15:26:21.437Z,44.94
2024-04-22T15:31:23.503Z,45.33
2024-04-22T15:36:25.524Z,46.30
2024-04-22T15:41:27.651Z,45.97
2024-04-22T15:46:31.501Z,46.07
2024-04-22T15:51:33.610Z,45.51
2024-04-22T15:56:36.358Z,45.79
2024-04-22T16:01:40.984Z,45.49
2024-04-22T16:06:43.065Z,45.87
2024-04-22T16:11:45.122Z,45.55
2024-04-22T16:16:47.188Z,46.98
2024-04-22T16:21:49.242Z,46.16
2024-04-22T16:26:53.724Z,47.08
2024-04-22T16:31:55.740Z,47.19
2024-04-22T16:36:57.624Z,46.75
2024-04-22T16:41:59.551Z,45.94
2024-04-22T16:47:01.590Z,46.56
2024-04-22T16:52:04.587Z,46.91
2024-04-22T16:57:06.517Z,47.05
2024-04-22T17:02:08.548Z,47.17
2024-04-22T17:07:10.677Z,47.89
2024-04-22T17:12:12.566Z,46.48
2024-04-22T17:17:14.469Z,47.60
2024-04-22T17:22:16.558Z,47.19
2024-04-22T17:27:21.661Z,48.40
2024-04-22T17:32:23.800Z,48.40
2024-04-22T17:37:25.681Z,48.29
2024-04-22T17:42:28.029Z,47.84
2024-04-22T17:47:30.266Z,48.61
2024-04-22T17:52:32.254Z,44.88
2024-04-22T17:57:34.067Z,43.69
2024-04-22T18:02:36.003Z,43.58
2024-04-22T18:07:37.883Z,44.70
2024-04-22T18:12:41.835Z,43.65
2024-04-22T18:17:43.904Z,43.95
2024-04-22T18:22:50.643Z,43.56
2024-04-22T18:27:53.331Z,43.86
2024-04-22T18:32:55.252Z,44.52
2024-04-22T18:37:57.411Z,44.06
2024-04-22T18:42:59.560Z,43.99
2024-04-22T18:48:01.705Z,44.57
2024-04-22T18:53:04.791Z,43.98
2024-04-22T18:58:07.898Z,44.55
2024-04-22T19:03:10.739Z,44.53
2024-04-22T19:08:13.647Z,43.54
2024-04-22T19:13:17.067Z,43.11
2024-04-22T19:18:20.471Z,43.87
2024-04-22T19:23:22.519Z,44.01
2024-04-22T19:28:26.870Z,43.66
2024-04-22T19:33:29.929Z,44.37
2024-04-22T19:38:31.998Z,43.95
2024-04-22T19:43:34.099Z,44.60
2024-04-22T19:48:36.138Z,43.91
2024-04-22T19:53:39.120Z,46.24
2024-04-22T19:58:41.113Z,44.06
2024-04-22T20:03:44.112Z,44.53
2024-04-22T20:08:48.181Z,46.17
2024-04-22T20:13:50.300Z,44.49
2024-04-22T20:18:58.075Z,44.63
2024-04-22T20:23:59.923Z,45.11
2024-04-22T20:29:01.736Z,44.69
2024-04-22T20:34:03.750Z,44.65
2024-04-22T20:39:05.894Z,45.15
2024-04-22T20:44:07.841Z,45.09
2024-04-22T20:49:09.915Z,45.90
2024-04-22T20:54:11.755Z,47.43
2024-04-22T20:59:13.624Z,47.21
2024-04-22T21:04:15.434Z,47.33
2024-04-22T21:09:17.266Z,50.08
2024-04-22T21:14:19.134Z,49.22
2024-04-22T21:19:21.152Z,48.46
2024-04-22T21:24:23.215Z,51.14
2024-04-22T21:29:25.081Z,49.85
2024-04-22T21:34:28.776Z,49.58
2024-04-22T21:39:31.103Z,51.72
2024-04-22T21:44:33.402Z,49.87
2024-04-22T21:49:35.404Z,49.26
2024-04-22T21:54:37.515Z,51.78
2024-04-22T22:00:16.794Z,50.15
2024-04-22T22:05:55.979Z,50.79
2024-04-22T22:10:58.696Z,51.86
2024-04-22T22:16:00.659Z,51.47
2024-04-22T22:21:03.021Z,54.03
2024-04-22T22:26:05.217Z,54.27
2024-04-22T22:31:07.415Z,53.97
2024-04-22T22:36:09.529Z,56.99
2024-04-22T22:41:11.370Z,56.83
2024-04-22T22:46:13.237Z,55.40
2024-04-22T22:51:15.068Z,55.81
2024-04-22T22:56:16.858Z,57.30
2024-04-22T23:01:18.713Z,55.73
2024-04-22T23:06:20.573Z,56.56
2024-04-22T23:11:22.403Z,53.59
2024-04-22T23:16:24.307Z,54.48
2024-04-22T23:21:26.139Z,55.08
2024-04-22T23:26:28.148Z,56.59
2024-04-22T23:31:30.287Z,57.43
2024-04-22T23:36:32.154Z,55.42
2024-04-22T23:41:34.009Z,55.19
2024-04-22T23:46:35.940Z,55.92
2024-04-22T23:51:37.899Z,57.76
2024-04-22T23:56:39.814Z,58.79
